createdAt,value
2019-03-11T00:02:27.405Z,77.50
2019-03-11T00:04:55.633Z,77.74
2019-03-11T00:07:23.869Z,77.65
2019-03-11T00:09:52.318Z,76.51
2019-03-11T00:12:20.780Z,77.24
2019-03-11T00:14:49.008Z,77.92
2019-03-11T00:17:17.486Z,77.92
2019-03-11T00:19:45.698Z,77.50
2019-03-11T00:22:13.926Z,76.25
2019-03-11T00:24:42.159Z,76.18
2019-03-11T00:27:10.624Z,74.44
2019-03-11T00:29:38.842Z,75.38
2019-03-11T00:32:07.072Z,75.85
2019-03-11T00:34:35.533Z,75.74
2019-03-11T00:37:03.983Z,74.12
2019-03-11T00:39:32.213Z,73.99
2019-03-11T00:42:00.671Z,73.71
2019-03-11T00:44:28.907Z,73.71
2019-03-11T00:46:57.134Z,73.41
2019-03-11T00:49:25.372Z,73.48
2019-03-11T00:51:53.598Z,73.48
2019-03-11T00:54:22.077Z,71.69
2019-03-11T00:56:50.306Z,71.69
2019-03-11T00:59:18.539Z,73.02
2019-03-11T01:01:46.756Z,72.93
2019-03-11T01:04:14.995Z,73.80
2019-03-11T01:06:43.449Z,71.90
2019-03-11T01:09:11.677Z,73.38
2019-03-11T01:11:39.927Z,73.38
2019-03-11T01:14:08.138Z,71.76
2019-03-11T01:16:36.375Z,71.76
2019-03-11T01:19:04.596Z,70.66
2019-03-11T01:21:32.826Z,69.96
2019-03-11T01:24:01.292Z,70.17
2019-03-11T01:26:29.514Z,70.17
2019-03-11T01:28:57.760Z,70.50
2019-03-11T01:31:26.210Z,70.50
2019-03-11T01:33:54.658Z,70.26
2019-03-11T01:36:22.899Z,70.93
2019-03-11T01:38:51.133Z,72.15
2019-03-11T01:41:19.377Z,69.77
2019-03-11T01:43:47.610Z,69.96
2019-03-11T01:46:16.067Z,69.96
2019-03-11T01:48:44.300Z,69.92
2019-03-11T01:51:12.545Z,70.65
2019-03-11T01:53:40.772Z,70.96
2019-03-11T01:56:09.345Z,71.56
2019-03-11T01:58:37.572Z,71.56
2019-03-11T02:01:06.104Z,70.28
2019-03-11T02:03:34.332Z,72.55
2019-03-11T02:06:02.571Z,71.33
2019-03-11T02:08:30.807Z,70.56
2019-03-11T02:10:59.052Z,69.79
2019-03-11T02:13:27.275Z,70.34
2019-03-11T02:15:55.805Z,69.32
2019-03-11T02:18:24.033Z,72.11
2019-03-11T02:20:52.269Z,70.73
2019-03-11T02:23:20.499Z,71.45
2019-03-11T02:25:48.779Z,70.33
2019-03-11T02:28:18.014Z,70.27
2019-03-11T02:30:46.257Z,72.71
2019-03-11T02:33:14.497Z,71.37
2019-03-11T02:35:42.789Z,70.63
2019-03-11T02:38:10.969Z,71.12
2019-03-11T02:40:39.212Z,71.52
2019-03-11T02:43:07.481Z,71.58
2019-03-11T02:45:35.678Z,70.71
2019-03-11T02:48:03.928Z,71.28
2019-03-11T02:50:32.406Z,70.23
2019-03-11T02:53:00.881Z,70.46
2019-03-11T02:55:29.111Z,71.60
2019-03-11T02:57:57.345Z,71.24
2019-03-11T03:00:25.577Z,70.12
2019-03-11T03:03:01.341Z,70.30
2019-03-11T03:05:31.190Z,70.19
2019-03-11T03:07:59.432Z,69.17
2019-03-11T03:10:27.662Z,68.58
2019-03-11T03:12:55.907Z,69.62
2019-03-11T03:15:24.388Z,69.62
2019-03-11T03:17:52.851Z,69.85
2019-03-11T03:20:21.079Z,68.19
2019-03-11T03:22:49.325Z,72.45
2019-03-11T03:25:32.197Z,76.12
2019-03-11T03:27:48.044Z,78.73
2019-03-11T03:30:18.231Z,83.00
2019-03-11T03:32:46.597Z,84.07
2019-03-11T03:35:14.777Z,86.12
2019-03-11T03:37:43.020Z,86.58
2019-03-11T03:40:12.987Z,86.58
2019-03-11T03:42:41.322Z,87.82
2019-03-11T03:45:21.074Z,88.34
2019-03-11T03:47:49.669Z,88.76
2019-03-11T03:50:17.973Z,89.49
2019-03-11T03:52:46.228Z,90.65
2019-03-11T03:55:14.469Z,89.90
2019-03-11T03:57:42.685Z,89.77
2019-03-11T04:00:11.572Z,89.22
2019-03-11T04:02:39.875Z,89.22
2019-03-11T04:05:10.381Z,89.38
2019-03-11T04:07:38.846Z,89.15
2019-03-11T04:10:12.714Z,89.76
2019-03-11T04:12:41.011Z,89.21
2019-03-11T04:15:10.193Z,89.08
2019-03-11T04:17:38.746Z,89.85
2019-03-11T04:20:15.313Z,90.69
2019-03-11T04:22:43.509Z,89.83
2019-03-11T04:25:12.045Z,90.45
2019-03-11T04:27:40.279Z,90.02
2019-03-11T04:30:11.748Z,89.46
2019-03-11T04:32:39.965Z,89.17
2019-03-11T04:35:08.348Z,89.79
2019-03-11T04:37:36.583Z,89.71
2019-03-11T04:40:07.931Z,89.11
2019-03-11T04:42:36.168Z,88.89
2019-03-11T04:45:06.249Z,89.79
2019-03-11T04:47:34.481Z,88.66
2019-03-11T04:50:02.797Z,89.41
2019-03-11T04:52:31.030Z,88.57
2019-03-11T04:54:59.272Z,89.39
2019-03-11T04:57:28.103Z,89.62
2019-03-11T04:59:56.347Z,89.24
2019-03-11T05:02:24.591Z,88.76
2019-03-11T05:04:53.073Z,89.24
2019-03-11T05:07:21.529Z,88.71
2019-03-11T05:09:49.774Z,88.97
2019-03-11T05:12:18.007Z,90.24
2019-03-11T05:14:46.245Z,90.86
2019-03-11T05:17:14.484Z,90.91
2019-03-11T05:19:42.724Z,90.86
2019-03-11T05:22:10.961Z,90.85
2019-03-11T05:24:39.198Z,90.64
2019-03-11T05:27:07.691Z,89.03
2019-03-11T05:29:36.171Z,88.39
2019-03-11T05:32:04.409Z,88.57
2019-03-11T05:34:32.636Z,89.27
2019-03-11T05:37:00.887Z,88.68
2019-03-11T05:39:29.120Z,87.98
2019-03-11T05:41:57.593Z,88.43
2019-03-11T05:44:25.828Z,88.80
2019-03-11T05:46:54.066Z,88.95
2019-03-11T05:49:22.294Z,88.48
2019-03-11T05:51:51.738Z,88.68
2019-03-11T05:54:20.444Z,88.47
2019-03-11T05:56:48.671Z,88.38
2019-03-11T05:59:16.915Z,87.63
2019-03-11T06:01:45.149Z,87.58
2019-03-11T06:04:13.385Z,87.95
2019-03-11T06:06:41.614Z,88.41
2019-03-11T06:09:09.863Z,88.52
2019-03-11T06:11:38.331Z,88.78
2019-03-11T06:14:06.802Z,88.90
2019-03-11T06:16:35.038Z,88.13
2019-03-11T06:19:03.294Z,87.07
2019-03-11T06:21:36.085Z,86.25
2019-03-11T06:24:04.398Z,86.65
2019-03-11T06:26:32.857Z,86.88
2019-03-11T06:29:01.317Z,86.81
2019-03-11T06:31:29.555Z,86.71
2019-03-11T06:33:58.028Z,87.18
2019-03-11T06:36:26.253Z,86.81
2019-03-11T06:39:05.018Z,86.70
2019-03-11T06:41:24.442Z,85.65
2019-03-11T06:43:52.682Z,86.52
2019-03-11T06:46:20.989Z,86.17
2019-03-11T06:48:49.459Z,86.61
2019-03-11T06:51:17.692Z,87.16
2019-03-11T06:53:45.965Z,86.87
2019-03-11T06:56:14.206Z,86.92
2019-03-11T06:58:42.422Z,86.79
2019-03-11T07:01:10.666Z,86.02
2019-03-11T07:03:38.897Z,85.63
2019-03-11T07:06:07.160Z,85.78
2019-03-11T07:08:35.394Z,85.53
2019-03-11T07:11:03.724Z,86.00
2019-03-11T07:13:31.941Z,86.32
2019-03-11T07:16:00.212Z,86.83
2019-03-11T07:18:28.482Z,86.41
2019-03-11T07:20:56.728Z,87.66
2019-03-11T07:23:24.964Z,87.21
2019-03-11T07:25:53.216Z,87.69
2019-03-11T07:28:21.452Z,87.39
2019-03-11T07:30:49.695Z,87.05
2019-03-11T07:33:17.931Z,88.33
2019-03-11T07:35:46.215Z,87.77
2019-03-11T07:38:14.669Z,87.57
2019-03-11T07:40:43.179Z,87.35
2019-03-11T07:43:11.659Z,88.20
2019-03-11T07:45:39.900Z,88.20
2019-03-11T07:48:08.126Z,89.07
2019-03-11T07:50:36.598Z,89.90
2019-03-11T07:53:05.283Z,88.87
2019-03-11T07:55:33.516Z,88.99
2019-03-11T07:58:01.747Z,88.41
2019-03-11T08:00:29.976Z,88.62
2019-03-11T08:02:58.213Z,87.87
2019-03-11T08:05:26.669Z,88.62
2019-03-11T08:07:54.946Z,88.45
2019-03-11T08:10:25.147Z,88.76
2019-03-11T08:12:53.619Z,88.99
2019-03-11T08:15:21.944Z,88.47
2019-03-11T08:17:50.586Z,87.39
2019-03-11T08:20:18.739Z,85.92
2019-03-11T08:22:47.275Z,84.67
2019-03-11T08:25:16.048Z,84.71
2019-03-11T08:27:44.278Z,84.71
2019-03-11T08:30:22.282Z,82.12
2019-03-11T08:32:50.751Z,81.19
2019-03-11T08:35:19.308Z,81.19
2019-03-11T08:37:47.549Z,79.98
2019-03-11T08:40:20.014Z,78.64
2019-03-11T08:42:48.316Z,78.64
2019-03-11T08:45:17.683Z,76.91
2019-03-11T08:47:46.090Z,78.65
2019-03-11T08:50:15.422Z,77.01
2019-03-11T08:52:43.655Z,76.57
2019-03-11T08:55:12.360Z,77.54
2019-03-11T08:57:41.551Z,78.58
2019-03-11T09:00:17.649Z,78.58
2019-03-11T09:02:45.942Z,79.44
2019-03-11T09:05:14.349Z,78.97
2019-03-11T09:07:42.579Z,78.67
2019-03-11T09:10:17.839Z,82.03
2019-03-11T09:12:46.058Z,82.03
2019-03-11T09:15:20.869Z,81.39
2019-03-11T09:17:49.097Z,81.35
2019-03-11T09:20:18.271Z,82.65
2019-03-11T09:22:46.502Z,83.28
2019-03-11T09:25:20.980Z,83.53
2019-03-11T09:27:50.738Z,83.53
2019-03-11T09:30:23.296Z,83.36
2019-03-11T09:32:51.765Z,84.55
2019-03-11T09:35:20.054Z,85.42
2019-03-11T09:37:48.536Z,84.90
2019-03-11T09:40:18.771Z,83.94
2019-03-11T09:42:47.226Z,83.94
2019-03-11T09:45:16.436Z,81.25
2019-03-11T09:47:45.056Z,80.81
2019-03-11T09:50:16.958Z,81.42
2019-03-11T09:52:45.492Z,80.28
2019-03-11T09:55:15.367Z,80.28
2019-03-11T09:57:43.595Z,80.71
2019-03-11T10:00:14.876Z,80.35
2019-03-11T10:02:51.540Z,80.35
2019-03-11T10:05:13.425Z,78.65
2019-03-11T10:07:41.691Z,78.65
2019-03-11T10:10:15.870Z,78.51
2019-03-11T10:12:44.083Z,78.47
2019-03-11T10:15:15.218Z,77.69
2019-03-11T10:17:43.441Z,77.69
2019-03-11T10:20:14.242Z,77.20
2019-03-11T10:22:42.699Z,76.64
2019-03-11T10:25:11.208Z,76.64
2019-03-11T10:27:39.434Z,75.71
2019-03-11T10:30:13.245Z,73.86
2019-03-11T10:32:41.545Z,73.81
2019-03-11T10:35:30.188Z,73.81
2019-03-11T10:37:41.684Z,74.64
2019-03-11T10:40:15.193Z,73.33
2019-03-11T10:42:43.421Z,71.07
2019-03-11T10:45:13.800Z,71.07
2019-03-11T10:47:42.097Z,71.46
2019-03-11T10:50:12.275Z,71.46
2019-03-11T10:52:40.539Z,71.24
2019-03-11T10:55:13.667Z,69.95
2019-03-11T10:57:42.191Z,69.67
2019-03-11T11:00:19.277Z,69.93
2019-03-11T11:02:47.516Z,69.01
2019-03-11T11:05:15.995Z,69.01
2019-03-11T11:07:44.225Z,68.45
2019-03-11T11:10:14.788Z,68.45
2019-03-11T11:12:43.240Z,68.95
2019-03-11T11:15:17.396Z,68.41
2019-03-11T11:17:45.993Z,68.01
2019-03-11T11:20:16.172Z,67.01
2019-03-11T11:22:44.627Z,67.97
2019-03-11T11:25:20.151Z,67.28
2019-03-11T11:27:48.607Z,67.11
2019-03-11T11:30:21.647Z,66.74
2019-03-11T11:32:50.255Z,66.32
2019-03-11T11:35:18.848Z,65.38
2019-03-11T11:37:47.093Z,66.06
2019-03-11T11:40:30.992Z,64.94
2019-03-11T11:42:59.305Z,64.90
2019-03-11T11:45:28.791Z,64.62
2019-03-11T11:47:57.034Z,63.91
2019-03-11T11:50:25.807Z,64.92
2019-03-11T11:52:54.100Z,62.44
2019-03-11T11:55:25.617Z,62.03
2019-03-11T11:57:53.911Z,63.28
2019-03-11T12:00:24.745Z,62.99
2019-03-11T12:02:53.199Z,64.39
2019-03-11T12:05:21.963Z,62.93
2019-03-11T12:07:50.663Z,62.02
2019-03-11T12:10:30.864Z,61.70
2019-03-11T12:12:59.130Z,61.65
2019-03-11T12:15:27.562Z,61.40
2019-03-11T12:17:55.792Z,61.02
2019-03-11T12:20:28.462Z,61.07
2019-03-11T12:22:56.690Z,59.57
2019-03-11T12:25:24.967Z,61.62
2019-03-11T12:27:54.535Z,60.62
2019-03-11T12:30:25.301Z,60.35
2019-03-11T12:32:53.923Z,59.75
2019-03-11T12:35:22.387Z,59.90
2019-03-11T12:37:50.909Z,61.81
2019-03-11T12:40:19.594Z,60.74
2019-03-11T12:42:47.848Z,60.56
2019-03-11T12:45:17.214Z,60.22
2019-03-11T12:47:45.444Z,59.89
2019-03-11T12:50:16.326Z,59.49
2019-03-11T12:52:44.656Z,60.09
2019-03-11T12:55:13.183Z,60.93
2019-03-11T12:57:41.421Z,60.97
2019-03-11T13:00:18.854Z,60.53
2019-03-11T13:02:47.369Z,59.76
2019-03-11T13:05:16.458Z,60.71
2019-03-11T13:07:44.924Z,60.50
2019-03-11T13:10:25.307Z,59.28
2019-03-11T13:12:53.779Z,59.13
2019-03-11T13:15:22.301Z,59.00
2019-03-11T13:17:50.539Z,58.00
2019-03-11T13:20:31.095Z,57.70
2019-03-11T13:22:59.777Z,59.17
2019-03-11T13:25:28.000Z,58.58
2019-03-11T13:27:56.549Z,58.39
2019-03-11T13:30:24.999Z,57.42
2019-03-11T13:32:53.232Z,61.07
2019-03-11T13:35:21.470Z,63.93
2019-03-11T13:37:49.695Z,65.99
2019-03-11T13:40:17.938Z,69.05
2019-03-11T13:42:46.419Z,70.42
2019-03-11T13:45:17.191Z,73.36
2019-03-11T13:47:45.659Z,74.12
2019-03-11T13:50:15.624Z,76.16
2019-03-11T13:52:44.142Z,77.98
2019-03-11T13:55:13.936Z,79.29
2019-03-11T13:57:42.170Z,79.55
2019-03-11T14:00:13.512Z,80.26
2019-03-11T14:02:41.966Z,81.63
2019-03-11T14:05:10.335Z,82.07
2019-03-11T14:07:38.641Z,77.63
2019-03-11T14:10:10.178Z,74.89
2019-03-11T14:12:38.414Z,72.54
2019-03-11T14:15:09.959Z,71.68
2019-03-11T14:17:38.189Z,70.24
2019-03-11T14:20:09.369Z,70.15
2019-03-11T14:22:37.828Z,71.72
2019-03-11T14:25:07.303Z,70.11
2019-03-11T14:27:35.606Z,70.02
2019-03-11T14:30:05.603Z,70.02
2019-03-11T14:32:33.830Z,70.78
2019-03-11T14:35:02.073Z,71.33
2019-03-11T14:37:30.298Z,66.51
2019-03-11T14:39:58.642Z,67.77
2019-03-11T14:42:26.904Z,65.36
2019-03-11T14:44:55.366Z,67.48
2019-03-11T14:47:23.763Z,66.66
2019-03-11T14:49:52.036Z,64.82
2019-03-11T14:52:20.259Z,64.80
2019-03-11T14:54:48.728Z,66.21
2019-03-11T14:57:17.167Z,63.76
2019-03-11T14:59:45.406Z,65.00
2019-03-11T15:02:13.636Z,66.54
2019-03-11T15:04:41.864Z,68.02
2019-03-11T15:07:10.105Z,74.41
2019-03-11T15:09:38.620Z,75.42
2019-03-11T15:12:06.788Z,80.72
2019-03-11T15:14:35.019Z,81.02
2019-03-11T15:17:03.251Z,84.24
2019-03-11T15:19:31.830Z,79.88
2019-03-11T15:22:00.065Z,83.66
2019-03-11T15:24:28.519Z,82.98
2019-03-11T15:26:57.004Z,81.78
2019-03-11T15:29:25.508Z,81.46
2019-03-11T15:31:53.718Z,82.19
2019-03-11T15:34:21.952Z,78.12
2019-03-11T15:36:50.415Z,76.68
2019-03-11T15:39:18.634Z,76.61
2019-03-11T15:41:47.119Z,78.35
2019-03-11T15:44:15.339Z,78.39
2019-03-11T15:46:43.564Z,79.59
2019-03-11T15:49:11.881Z,83.16
2019-03-11T15:51:40.111Z,83.60
2019-03-11T15:54:08.344Z,83.24
2019-03-11T15:56:36.951Z,85.01
2019-03-11T15:59:05.412Z,85.18
2019-03-11T16:01:33.871Z,81.40
2019-03-11T16:04:02.336Z,81.40
2019-03-11T16:06:30.787Z,79.79
2019-03-11T16:08:59.250Z,79.44
2019-03-11T16:11:27.698Z,80.04
2019-03-11T16:13:56.161Z,77.23
2019-03-11T16:16:24.617Z,77.65
2019-03-11T16:18:53.078Z,76.56
2019-03-11T16:21:21.542Z,76.56
2019-03-11T16:23:49.777Z,77.05
2019-03-11T16:26:18.323Z,75.92
2019-03-11T16:28:48.291Z,74.73
2019-03-11T16:31:16.712Z,73.78
2019-03-11T16:33:44.947Z,71.59
2019-03-11T16:36:13.481Z,71.59
2019-03-11T16:38:41.720Z,71.84
2019-03-11T16:41:09.949Z,71.84
2019-03-11T16:43:38.417Z,71.20
2019-03-11T16:46:06.651Z,70.32
2019-03-11T16:48:34.986Z,69.33
2019-03-11T16:51:03.228Z,70.01
2019-03-11T16:53:31.689Z,70.01
2019-03-11T16:56:00.222Z,69.59
2019-03-11T16:58:28.697Z,69.48
2019-03-11T17:00:58.575Z,67.66
2019-03-11T17:03:27.401Z,67.66
2019-03-11T17:05:55.885Z,67.17
2019-03-11T17:08:24.365Z,66.05
2019-03-11T17:10:52.600Z,65.07
2019-03-11T17:13:21.176Z,65.98
2019-03-11T17:15:49.365Z,65.83
2019-03-11T17:18:17.878Z,65.70
2019-03-11T17:20:46.116Z,65.33
2019-03-11T17:23:14.363Z,65.33
2019-03-11T17:25:42.583Z,64.87
2019-03-11T17:28:10.811Z,65.81
2019-03-11T17:30:39.283Z,65.16
2019-03-11T17:33:07.509Z,64.40
2019-03-11T17:35:37.704Z,63.44
2019-03-11T17:38:05.694Z,63.88
2019-03-11T17:40:33.944Z,63.90
2019-03-11T17:43:02.441Z,64.15
2019-03-11T17:45:30.804Z,63.43
2019-03-11T17:47:59.042Z,63.43
2019-03-11T17:50:27.286Z,62.94
2019-03-11T17:52:55.523Z,62.94
2019-03-11T17:55:23.991Z,63.78
2019-03-11T17:57:52.468Z,63.23
2019-03-11T18:00:36.360Z,62.77
2019-03-11T18:03:04.968Z,62.77
2019-03-11T18:05:33.435Z,63.36
2019-03-11T18:08:01.655Z,62.53
2019-03-11T18:10:30.114Z,62.23
2019-03-11T18:12:58.360Z,62.23
2019-03-11T18:15:26.579Z,62.82
2019-03-11T18:17:54.930Z,62.39
2019-03-11T18:20:23.451Z,62.34
2019-03-11T18:22:51.932Z,63.57
2019-03-11T18:25:20.906Z,65.15
2019-03-11T18:27:49.163Z,66.20
2019-03-11T18:30:22.436Z,65.16
2019-03-11T18:32:50.692Z,64.41
2019-03-11T18:35:19.185Z,64.42
2019-03-11T18:37:47.436Z,64.18
2019-03-11T18:40:19.922Z,64.29
2019-03-11T18:42:48.382Z,64.77
2019-03-11T18:45:17.215Z,64.66
2019-03-11T18:47:45.747Z,64.66
2019-03-11T18:50:16.640Z,65.50
2019-03-11T18:52:45.200Z,65.46
2019-03-11T18:55:13.696Z,65.46
2019-03-11T18:57:41.938Z,66.01
2019-03-11T19:00:19.135Z,66.94
2019-03-11T19:02:47.627Z,66.05
2019-03-11T19:05:18.556Z,66.19
2019-03-11T19:07:46.824Z,66.19
2019-03-11T19:10:15.805Z,68.41
2019-03-11T19:12:44.054Z,69.26
2019-03-11T19:15:22.574Z,72.06
2019-03-11T19:17:50.796Z,72.95
2019-03-11T19:20:21.321Z,72.38
2019-03-11T19:22:49.584Z,72.38
2019-03-11T19:25:18.013Z,72.42
2019-03-11T19:27:46.482Z,71.79
2019-03-11T19:30:27.951Z,71.04
2019-03-11T19:32:56.485Z,69.74
2019-03-11T19:35:24.739Z,69.33
2019-03-11T19:37:53.246Z,70.30
2019-03-11T19:40:23.718Z,70.30
2019-03-11T19:42:52.155Z,70.46
2019-03-11T19:45:20.729Z,69.55
2019-03-11T19:47:48.983Z,69.69
2019-03-11T19:50:18.324Z,69.69
2019-03-11T19:52:57.699Z,69.86
2019-03-11T19:55:17.079Z,70.68
2019-03-11T19:57:45.266Z,69.91
2019-03-11T20:00:18.873Z,69.91
2019-03-11T20:02:47.243Z,70.17
2019-03-11T20:05:26.493Z,69.69
2019-03-11T20:07:54.709Z,69.69
2019-03-11T20:10:23.259Z,69.22
2019-03-11T20:12:51.440Z,69.08
2019-03-11T20:15:19.728Z,69.08
2019-03-11T20:17:48.111Z,69.06
2019-03-11T20:20:18.510Z,68.90
2019-03-11T20:22:47.875Z,68.90
2019-03-11T20:25:24.659Z,67.69
2019-03-11T20:27:53.103Z,67.69
2019-03-11T20:30:22.720Z,67.92
2019-03-11T20:32:51.037Z,68.24
2019-03-11T20:35:19.460Z,68.56
2019-03-11T20:37:47.618Z,68.56
2019-03-11T20:40:15.867Z,68.86
2019-03-11T20:42:44.321Z,68.86
2019-03-11T20:45:16.530Z,68.71
2019-03-11T20:47:44.840Z,68.76
2019-03-11T20:50:14.947Z,69.12
2019-03-11T20:52:43.173Z,69.67
2019-03-11T20:55:14.610Z,69.67
2019-03-11T20:57:43.268Z,69.39
2019-03-11T21:00:20.524Z,69.39
2019-03-11T21:02:48.881Z,69.68
2019-03-11T21:05:19.947Z,69.41
2019-03-11T21:07:48.228Z,69.82
2019-03-11T21:10:17.041Z,69.82
2019-03-11T21:12:45.264Z,68.95
2019-03-11T21:15:14.970Z,68.95
2019-03-11T21:17:43.226Z,69.64
2019-03-11T21:20:15.876Z,69.68
2019-03-11T21:22:44.381Z,68.75
2019-03-11T21:25:15.732Z,68.75
2019-03-11T21:27:44.201Z,69.13
2019-03-11T21:30:25.464Z,69.21
2019-03-11T21:32:53.926Z,68.58
2019-03-11T21:35:22.340Z,68.58
2019-03-11T21:37:50.795Z,70.18
2019-03-11T21:40:20.668Z,70.18
2019-03-11T21:42:49.185Z,69.40
2019-03-11T21:45:18.078Z,69.40
2019-03-11T21:47:46.382Z,69.00
2019-03-11T21:50:28.360Z,69.00
2019-03-11T21:52:56.903Z,69.35
2019-03-11T21:55:25.138Z,69.77
2019-03-11T21:57:53.397Z,70.04
2019-03-11T22:00:34.102Z,69.55
2019-03-11T22:02:54.209Z,69.24
2019-03-11T22:05:22.755Z,69.24
2019-03-11T22:07:50.965Z,69.20
2019-03-11T22:10:19.442Z,69.20
2019-03-11T22:12:47.815Z,68.95
2019-03-11T22:15:25.712Z,68.63
2019-03-11T22:17:53.937Z,68.90
2019-03-11T22:20:22.181Z,68.53
2019-03-11T22:22:50.410Z,68.76
2019-03-11T22:25:19.594Z,68.17
2019-03-11T22:27:47.821Z,68.17
2019-03-11T22:30:20.630Z,68.68
2019-03-11T22:32:49.083Z,69.00
2019-03-11T22:35:17.602Z,68.74
2019-03-11T22:37:46.063Z,68.78
2019-03-11T22:40:15.942Z,68.78
2019-03-11T22:42:44.335Z,68.51
2019-03-11T22:45:16.834Z,68.51
2019-03-11T22:47:44.356Z,68.07
2019-03-11T22:50:12.723Z,68.30
2019-03-11T22:52:41.196Z,68.24
2019-03-11T22:55:10.067Z,68.69
2019-03-11T22:57:38.307Z,68.69
2019-03-11T23:00:18.489Z,68.81
2019-03-11T23:02:46.724Z,68.81
2019-03-11T23:05:15.190Z,69.17
2019-03-11T23:07:43.441Z,69.23
2019-03-11T23:10:11.665Z,69.30
2019-03-11T23:12:39.979Z,69.30
2019-03-11T23:15:09.076Z,68.90
2019-03-11T23:17:37.544Z,69.03
2019-03-11T23:20:07.444Z,68.36
2019-03-11T23:22:35.952Z,68.36
2019-03-11T23:25:06.121Z,68.76
2019-03-11T23:27:35.374Z,68.44
2019-03-11T23:30:05.568Z,68.15
2019-03-11T23:32:34.175Z,67.62
2019-03-11T23:35:02.340Z,67.62
2019-03-11T23:37:30.585Z,67.61
2019-03-11T23:39:59.054Z,68.15
2019-03-11T23:42:27.301Z,68.06
2019-03-11T23:44:55.756Z,68.06
2019-03-11T23:47:24.225Z,68.05
2019-03-11T23:49:52.694Z,68.05
2019-03-11T23:52:21.094Z,68.12
2019-03-11T23:54:49.326Z,68.13
2019-03-11T23:57:17.795Z,68.33
2019-03-11T23:59:46.251Z,68.41
